createdAt,value
2022-07-29T00:00:48.470Z,0.00
2022-07-29T00:01:48.428Z,0.00
2022-07-29T00:02:48.437Z,0.00
2022-07-29T00:03:48.490Z,0.00
2022-07-29T00:04:48.364Z,0.00
2022-07-29T00:05:48.340Z,0.00
2022-07-29T00:06:48.332Z,0.00
2022-07-29T00:07:48.301Z,0.00
2022-07-29T00:08:48.291Z,0.00
2022-07-29T00:09:51.733Z,0.00
2022-07-29T00:10:48.248Z,0.00
2022-07-29T00:11:48.229Z,0.00
2022-07-29T00:12:48.217Z,0.00
2022-07-29T00:13:51.054Z,0.00
2022-07-29T00:14:48.228Z,0.00
2022-07-29T00:15:48.152Z,0.00
2022-07-29T00:16:48.241Z,0.00
2022-07-29T00:17:48.118Z,0.00
2022-07-29T00:18:48.105Z,0.00
2022-07-29T00:19:48.088Z,0.00
2022-07-29T00:20:48.059Z,0.00
2022-07-29T00:21:48.043Z,0.00
2022-07-29T00:22:48.024Z,0.00
2022-07-29T00:23:48.008Z,0.00
2022-07-29T00:24:47.995Z,0.00
2022-07-29T00:25:47.976Z,0.00
2022-07-29T00:26:47.953Z,0.00
2022-07-29T00:27:47.938Z,0.00
2022-07-29T00:28:47.911Z,0.00
2022-07-29T00:29:47.892Z,0.00
2022-07-29T00:30:47.902Z,0.00
2022-07-29T00:31:47.921Z,0.00
2022-07-29T00:32:47.841Z,0.00
2022-07-29T00:33:47.823Z,0.00
2022-07-29T00:34:47.802Z,0.00
2022-07-29T00:35:47.784Z,0.00
2022-07-29T00:36:47.764Z,0.00
2022-07-29T00:37:47.751Z,0.00
2022-07-29T00:38:47.748Z,0.00
2022-07-29T00:39:47.711Z,0.00
2022-07-29T00:40:47.695Z,0.00
2022-07-29T00:41:47.677Z,0.00
2022-07-29T00:42:47.665Z,0.00
2022-07-29T00:43:47.640Z,0.00
2022-07-29T00:44:47.623Z,0.00
2022-07-29T00:45:47.601Z,0.00
2022-07-29T00:46:47.638Z,0.00
2022-07-29T00:47:47.589Z,0.00
2022-07-29T00:48:47.581Z,0.00
2022-07-29T00:49:47.524Z,0.00
2022-07-29T00:50:47.509Z,0.00
2022-07-29T00:51:47.501Z,0.00
2022-07-29T00:52:47.474Z,0.00
2022-07-29T00:53:47.460Z,0.00
2022-07-29T00:54:47.457Z,0.00
2022-07-29T00:55:47.421Z,0.00
2022-07-29T00:56:47.396Z,0.00
2022-07-29T00:57:47.381Z,0.00
2022-07-29T00:58:47.418Z,0.00
2022-07-29T00:59:47.367Z,0.00
2022-07-29T01:00:47.382Z,0.00
2022-07-29T01:01:47.370Z,0.00
2022-07-29T01:02:47.300Z,0.00
2022-07-29T01:03:47.277Z,0.00
2022-07-29T01:04:47.252Z,0.00
2022-07-29T01:05:51.077Z,0.00
2022-07-29T01:06:47.216Z,0.00
2022-07-29T01:07:47.222Z,0.00
2022-07-29T01:08:47.212Z,0.00
2022-07-29T01:09:47.361Z,0.00
2022-07-29T01:10:47.162Z,0.00
2022-07-29T01:11:47.129Z,0.00
2022-07-29T01:12:47.108Z,0.00
2022-07-29T01:13:47.082Z,0.00
2022-07-29T01:14:47.092Z,0.00
2022-07-29T01:15:48.956Z,0.00
2022-07-29T01:16:47.085Z,0.00
2022-07-29T01:17:53.171Z,0.00
2022-07-29T01:18:47.012Z,0.00
2022-07-29T01:19:47.019Z,0.00
2022-07-29T01:20:46.966Z,0.00
2022-07-29T01:21:46.943Z,0.00
2022-07-29T01:22:46.995Z,0.00
2022-07-29T01:23:46.910Z,0.00
2022-07-29T01:24:46.892Z,0.00
2022-07-29T01:25:46.876Z,0.00
2022-07-29T01:26:46.872Z,0.00
2022-07-29T01:27:46.840Z,0.00
2022-07-29T01:28:46.813Z,0.00
2022-07-29T01:29:46.798Z,0.00
2022-07-29T01:30:46.789Z,0.00
2022-07-29T01:31:58.531Z,0.00
2022-07-29T01:32:46.765Z,0.00
2022-07-29T01:33:46.732Z,0.00
2022-07-29T01:34:46.714Z,0.00
2022-07-29T01:35:46.691Z,0.00
2022-07-29T01:36:46.656Z,0.00
2022-07-29T01:37:46.648Z,0.00
2022-07-29T01:38:46.648Z,0.00
2022-07-29T01:39:46.604Z,0.00
2022-07-29T01:40:46.591Z,0.00
2022-07-29T01:41:46.576Z,0.00
2022-07-29T01:42:46.573Z,0.00
2022-07-29T01:43:46.533Z,0.00
2022-07-29T01:44:46.514Z,0.00
2022-07-29T01:45:46.498Z,0.00
2022-07-29T01:46:46.582Z,0.00
2022-07-29T01:47:46.458Z,0.00
2022-07-29T01:48:46.473Z,0.00
2022-07-29T01:49:46.436Z,0.00
2022-07-29T01:50:46.420Z,0.00
2022-07-29T01:51:46.420Z,0.00
2022-07-29T01:52:46.387Z,0.00
2022-07-29T01:53:46.347Z,0.00
2022-07-29T01:54:46.699Z,0.00
2022-07-29T01:55:46.312Z,0.00
2022-07-29T01:56:46.326Z,0.00
2022-07-29T01:57:46.277Z,0.00
2022-07-29T01:58:46.246Z,0.00
2022-07-29T01:59:46.227Z,0.00
2022-07-29T02:00:46.209Z,0.00
2022-07-29T02:01:46.246Z,0.00
2022-07-29T02:02:46.493Z,0.00
2022-07-29T02:03:46.153Z,0.00
2022-07-29T02:04:46.214Z,0.00
2022-07-29T02:05:46.141Z,0.00
2022-07-29T02:06:46.094Z,0.00
2022-07-29T02:07:46.071Z,0.00
2022-07-29T02:08:46.064Z,0.00
2022-07-29T02:09:46.049Z,0.00
2022-07-29T02:10:46.010Z,0.00
2022-07-29T02:11:45.995Z,0.00
2022-07-29T02:12:48.556Z,0.00
2022-07-29T02:13:45.971Z,0.00
2022-07-29T02:14:45.940Z,0.00
2022-07-29T02:15:46.025Z,0.00
2022-07-29T02:16:45.906Z,0.00
2022-07-29T02:17:45.884Z,0.00
2022-07-29T02:18:45.863Z,0.00
2022-07-29T02:19:45.854Z,0.00
2022-07-29T02:20:45.856Z,0.00
2022-07-29T02:21:45.807Z,0.00
2022-07-29T02:22:45.807Z,0.00
2022-07-29T02:23:50.852Z,0.00
2022-07-29T02:24:45.746Z,0.00
2022-07-29T02:25:45.717Z,0.00
2022-07-29T02:26:45.704Z,0.00
2022-07-29T02:27:45.697Z,0.00
2022-07-29T02:28:45.658Z,0.00
2022-07-29T02:29:45.645Z,0.00
2022-07-29T02:30:45.686Z,0.00
2022-07-29T02:31:45.602Z,0.00
2022-07-29T02:32:45.581Z,0.00
2022-07-29T02:33:45.564Z,0.00
2022-07-29T02:34:45.543Z,0.00
2022-07-29T02:35:45.538Z,0.00
2022-07-29T02:36:45.507Z,0.00
2022-07-29T02:37:45.487Z,0.00
2022-07-29T02:38:45.466Z,0.00
2022-07-29T02:39:45.478Z,0.00
2022-07-29T02:40:45.426Z,0.00
2022-07-29T02:41:45.407Z,0.00
2022-07-29T02:42:45.388Z,0.00
2022-07-29T02:43:45.364Z,0.00
2022-07-29T02:44:45.360Z,0.00
2022-07-29T02:45:45.323Z,0.00
2022-07-29T02:46:45.348Z,0.00
2022-07-29T02:47:45.287Z,0.00
2022-07-29T02:48:45.311Z,0.00
2022-07-29T02:49:45.278Z,0.00
2022-07-29T02:50:45.228Z,0.00
2022-07-29T02:51:45.254Z,0.00
2022-07-29T02:52:45.187Z,0.00
2022-07-29T02:53:45.180Z,0.00
2022-07-29T02:54:45.144Z,0.00
2022-07-29T02:55:45.125Z,0.00
2022-07-29T02:56:45.110Z,0.00
2022-07-29T02:57:54.831Z,0.00
2022-07-29T02:58:45.070Z,0.00
2022-07-29T02:59:45.059Z,0.00
2022-07-29T03:00:45.031Z,0.00
2022-07-29T03:01:45.074Z,0.00
2022-07-29T03:02:44.993Z,0.00
2022-07-29T03:03:44.981Z,0.00
2022-07-29T03:04:44.996Z,0.00
2022-07-29T03:05:44.931Z,0.00
2022-07-29T03:06:44.909Z,0.00
2022-07-29T03:07:44.892Z,0.00
2022-07-29T03:08:44.869Z,0.00
2022-07-29T03:09:44.849Z,0.00
2022-07-29T03:10:44.849Z,0.00
2022-07-29T03:11:50.616Z,0.00
2022-07-29T03:12:44.790Z,0.00
2022-07-29T03:13:44.773Z,0.00
2022-07-29T03:14:44.753Z,0.00
2022-07-29T03:15:44.799Z,0.00
2022-07-29T03:16:44.774Z,4.00
2022-07-29T03:17:44.695Z,4.00
2022-07-29T03:18:44.673Z,4.00
2022-07-29T03:19:44.658Z,4.00
2022-07-29T03:20:44.627Z,4.00
2022-07-29T03:21:44.608Z,4.00
2022-07-29T03:22:44.592Z,8.00
2022-07-29T03:23:44.574Z,4.00
2022-07-29T03:24:44.543Z,8.00
2022-07-29T03:25:44.526Z,8.00
2022-07-29T03:26:44.549Z,12.00
2022-07-29T03:27:44.489Z,12.00
2022-07-29T03:28:44.466Z,16.00
2022-07-29T03:29:49.658Z,16.00
2022-07-29T03:30:44.532Z,20.00
2022-07-29T03:31:44.410Z,24.00
2022-07-29T03:32:44.383Z,24.00
2022-07-29T03:33:44.362Z,28.00
2022-07-29T03:34:44.343Z,32.00
2022-07-29T03:35:44.325Z,36.00
2022-07-29T03:36:44.311Z,44.00
2022-07-29T03:37:44.287Z,52.00
2022-07-29T03:38:44.318Z,56.00
2022-07-29T03:39:44.245Z,60.00
2022-07-29T03:40:44.225Z,68.00
2022-07-29T03:41:44.207Z,80.00
2022-07-29T03:42:44.178Z,88.00
2022-07-29T03:43:49.603Z,100.00
2022-07-29T03:44:44.141Z,112.00
2022-07-29T03:45:44.133Z,124.00
2022-07-29T03:46:44.145Z,136.00
2022-07-29T03:47:50.570Z,152.00
2022-07-29T03:48:44.110Z,164.00
2022-07-29T03:49:44.059Z,176.00
2022-07-29T03:50:44.020Z,192.00
2022-07-29T03:51:43.998Z,208.00
2022-07-29T03:52:45.404Z,228.00
2022-07-29T03:53:43.956Z,244.00
2022-07-29T03:54:43.942Z,264.00
2022-07-29T03:55:43.915Z,280.00
2022-07-29T03:56:43.896Z,304.00
2022-07-29T03:57:43.877Z,324.00
2022-07-29T03:58:43.854Z,344.00
2022-07-29T03:59:43.834Z,368.00
2022-07-29T04:00:43.813Z,388.00
2022-07-29T04:01:43.878Z,408.00
2022-07-29T04:02:43.766Z,436.00
2022-07-29T04:03:43.794Z,456.00
2022-07-29T04:04:43.728Z,484.00
2022-07-29T04:05:43.704Z,508.00
2022-07-29T04:06:43.687Z,536.00
2022-07-29T04:07:43.664Z,560.00
2022-07-29T04:08:43.640Z,588.00
2022-07-29T04:09:43.623Z,612.00
2022-07-29T04:10:43.603Z,640.00
2022-07-29T04:12:01.684Z,668.00
2022-07-29T04:12:43.560Z,696.00
2022-07-29T04:13:43.546Z,724.00
2022-07-29T04:14:43.520Z,756.00
2022-07-29T04:15:43.563Z,784.00
2022-07-29T04:16:43.484Z,812.00
2022-07-29T04:17:43.460Z,836.00
2022-07-29T04:18:43.438Z,868.00
2022-07-29T04:19:43.413Z,904.00
2022-07-29T04:20:43.459Z,940.00
2022-07-29T04:21:43.379Z,976.00
2022-07-29T04:22:43.353Z,1008.00
2022-07-29T04:23:49.381Z,1048.00
2022-07-29T04:24:44.572Z,1092.00
2022-07-29T04:25:43.291Z,1132.00
2022-07-29T04:26:43.276Z,1168.00
2022-07-29T04:27:43.263Z,1212.00
2022-07-29T04:28:43.232Z,1252.00
2022-07-29T04:29:56.302Z,1292.00
2022-07-29T04:30:43.224Z,1340.00
2022-07-29T04:31:43.296Z,1364.00
2022-07-29T04:32:43.148Z,1400.00
2022-07-29T04:33:43.144Z,1444.00
2022-07-29T04:34:43.112Z,1492.00
2022-07-29T04:35:47.175Z,1548.00
2022-07-29T04:36:43.070Z,1608.00
2022-07-29T04:37:43.062Z,1692.00
2022-07-29T04:38:43.018Z,1800.00
2022-07-29T04:39:43.001Z,1920.00
2022-07-29T04:40:42.980Z,2012.00
2022-07-29T04:41:43.014Z,2132.00
2022-07-29T04:42:46.662Z,2192.00
2022-07-29T04:43:42.919Z,2220.00
2022-07-29T04:44:43.345Z,2196.00
2022-07-29T04:45:42.879Z,2160.00
2022-07-29T04:46:42.909Z,2128.00
2022-07-29T04:47:42.844Z,2084.00
2022-07-29T04:48:42.870Z,2072.00
2022-07-29T04:49:42.800Z,2132.00
2022-07-29T04:50:42.775Z,2204.00
2022-07-29T04:51:42.755Z,2296.00
2022-07-29T04:52:42.734Z,2352.00
2022-07-29T04:53:42.712Z,2388.00
2022-07-29T04:54:42.704Z,2416.00
2022-07-29T04:55:42.673Z,2388.00
2022-07-29T04:56:42.653Z,2376.00
2022-07-29T04:57:42.646Z,2344.00
2022-07-29T04:58:42.618Z,2252.00
2022-07-29T04:59:42.587Z,2136.00
2022-07-29T05:00:42.579Z,2064.00
2022-07-29T05:01:42.642Z,1996.00
2022-07-29T05:02:42.553Z,1944.00
2022-07-29T05:03:42.513Z,1876.00
2022-07-29T05:04:42.491Z,1816.00
2022-07-29T05:05:42.471Z,1780.00
2022-07-29T05:06:42.460Z,1756.00
2022-07-29T05:07:42.450Z,1728.00
2022-07-29T05:08:42.412Z,1720.00
2022-07-29T05:09:42.389Z,1720.00
2022-07-29T05:10:42.381Z,1736.00
2022-07-29T05:11:42.376Z,1760.00
2022-07-29T05:12:42.327Z,1804.00
2022-07-29T05:13:45.957Z,1840.00
2022-07-29T05:14:42.296Z,1896.00
2022-07-29T05:15:42.294Z,1956.00
2022-07-29T05:16:42.253Z,2024.00
2022-07-29T05:17:42.253Z,2092.00
2022-07-29T05:18:42.221Z,2172.00
2022-07-29T05:19:42.197Z,2244.00
2022-07-29T05:20:42.171Z,2324.00
2022-07-29T05:21:42.151Z,2440.00
2022-07-29T05:22:42.133Z,2608.00
2022-07-29T05:23:42.112Z,2820.00
2022-07-29T05:24:42.089Z,3072.00
2022-07-29T05:25:44.737Z,3232.00
2022-07-29T05:26:42.051Z,3384.00
2022-07-29T05:27:42.045Z,3612.00
2022-07-29T05:28:42.017Z,3776.00
2022-07-29T05:29:43.889Z,3944.00
2022-07-29T05:30:42.070Z,4144.00
2022-07-29T05:31:41.952Z,4364.00
2022-07-29T05:32:41.932Z,4604.00
2022-07-29T05:33:41.914Z,4752.00
2022-07-29T05:34:51.051Z,4844.00
2022-07-29T05:35:41.876Z,4900.00
2022-07-29T05:36:41.855Z,4916.00
2022-07-29T05:37:41.844Z,5256.00
2022-07-29T05:38:41.820Z,5896.00
2022-07-29T05:39:48.453Z,5520.00
2022-07-29T05:40:41.789Z,5308.00
2022-07-29T05:41:41.761Z,5100.00
2022-07-29T05:42:42.345Z,5128.00
2022-07-29T05:43:41.718Z,5140.00
2022-07-29T05:44:41.701Z,5212.00
2022-07-29T05:45:49.902Z,5452.00
2022-07-29T05:46:41.723Z,5820.00
2022-07-29T05:47:41.688Z,5912.00
2022-07-29T05:48:41.724Z,6000.00
2022-07-29T05:49:41.607Z,5172.00
2022-07-29T05:50:44.049Z,4808.00
2022-07-29T05:51:41.568Z,4756.00
2022-07-29T05:52:41.554Z,4812.00
2022-07-29T05:53:41.537Z,4936.00
2022-07-29T05:54:41.514Z,5232.00
2022-07-29T05:55:41.491Z,5412.00
2022-07-29T05:56:41.477Z,5524.00
2022-07-29T05:57:41.453Z,5352.00
2022-07-29T05:58:41.467Z,5744.00
2022-07-29T05:59:41.454Z,7332.00
2022-07-29T06:00:41.416Z,5248.00
2022-07-29T06:01:41.495Z,5160.00
2022-07-29T06:02:41.515Z,5112.00
2022-07-29T06:03:41.381Z,5736.00
2022-07-29T06:04:41.377Z,4928.00
2022-07-29T06:05:41.314Z,4808.00
2022-07-29T06:06:41.307Z,4692.00
2022-07-29T06:07:41.287Z,4640.00
2022-07-29T06:08:41.288Z,4604.00
2022-07-29T06:09:41.242Z,4584.00
2022-07-29T06:10:41.227Z,4572.00
2022-07-29T06:11:41.214Z,4548.00
2022-07-29T06:12:41.186Z,4536.00
2022-07-29T06:13:41.172Z,4552.00
2022-07-29T06:14:41.168Z,4536.00
2022-07-29T06:15:41.240Z,4464.00
2022-07-29T06:16:41.208Z,4364.00
2022-07-29T06:18:00.095Z,4280.00
2022-07-29T06:18:41.084Z,4208.00
2022-07-29T06:19:41.076Z,4168.00
2022-07-29T06:20:41.047Z,4164.00
2022-07-29T06:21:42.163Z,4168.00
2022-07-29T06:22:41.009Z,4144.00
2022-07-29T06:23:40.992Z,4032.00
2022-07-29T06:24:40.980Z,4000.00
2022-07-29T06:25:41.009Z,4028.00
2022-07-29T06:26:41.037Z,4064.00
2022-07-29T06:27:40.992Z,4128.00
2022-07-29T06:28:40.969Z,4176.00
2022-07-29T06:29:40.965Z,4188.00
2022-07-29T06:30:40.922Z,4180.00
2022-07-29T06:31:40.859Z,4112.00
2022-07-29T06:32:43.224Z,4164.00
2022-07-29T06:33:40.835Z,4372.00
2022-07-29T06:34:40.801Z,4516.00
2022-07-29T06:35:42.366Z,4668.00
2022-07-29T06:36:41.111Z,4792.00
2022-07-29T06:37:40.751Z,4880.00
2022-07-29T06:38:44.856Z,4948.00
2022-07-29T06:39:40.743Z,5036.00
2022-07-29T06:40:40.710Z,5148.00
2022-07-29T06:41:40.687Z,5284.00
2022-07-29T06:42:40.664Z,5448.00
2022-07-29T06:43:52.477Z,5656.00
2022-07-29T06:44:40.627Z,5984.00
2022-07-29T06:45:40.647Z,6364.00
2022-07-29T06:46:40.683Z,6740.00
2022-07-29T06:47:40.580Z,7208.00
2022-07-29T06:48:40.659Z,7696.00
2022-07-29T06:49:40.551Z,8096.00
2022-07-29T06:50:40.532Z,8392.00
2022-07-29T06:51:40.522Z,8560.00
2022-07-29T06:52:40.516Z,8724.00
2022-07-29T06:53:40.481Z,9008.00
2022-07-29T06:54:40.470Z,9276.00
2022-07-29T06:55:40.445Z,9388.00
2022-07-29T06:56:40.599Z,9528.00
2022-07-29T06:57:40.421Z,9624.00
2022-07-29T06:58:40.400Z,9728.00
2022-07-29T06:59:40.384Z,9548.00
2022-07-29T07:00:40.368Z,9336.00
2022-07-29T07:01:40.441Z,9252.00
2022-07-29T07:02:40.407Z,8912.00
2022-07-29T07:03:40.331Z,8456.00
2022-07-29T07:04:40.311Z,8124.00
2022-07-29T07:05:40.301Z,7884.00
2022-07-29T07:06:40.287Z,7468.00
2022-07-29T07:07:40.261Z,7008.00
2022-07-29T07:08:40.249Z,7068.00
2022-07-29T07:09:41.016Z,7060.00
2022-07-29T07:10:40.217Z,6992.00
2022-07-29T07:11:40.210Z,6744.00
2022-07-29T07:12:40.188Z,6684.00
2022-07-29T07:13:40.218Z,6888.00
2022-07-29T07:14:40.165Z,7060.00
2022-07-29T07:15:40.313Z,7156.00
2022-07-29T07:16:40.181Z,7456.00
2022-07-29T07:17:40.149Z,7840.00
2022-07-29T07:18:40.128Z,8148.00
2022-07-29T07:19:40.127Z,8544.00
2022-07-29T07:20:40.076Z,8876.00
2022-07-29T07:21:40.085Z,7708.00
2022-07-29T07:22:40.050Z,8548.00
2022-07-29T07:23:40.037Z,8176.00
2022-07-29T07:24:40.032Z,9496.00
2022-07-29T07:25:40.028Z,10260.00
2022-07-29T07:26:40.034Z,10488.00
2022-07-29T07:27:39.981Z,10552.00
2022-07-29T07:28:39.975Z,10680.00
2022-07-29T07:29:40.023Z,10644.00
2022-07-29T07:30:39.942Z,10640.00
2022-07-29T07:31:39.987Z,10188.00
2022-07-29T07:32:39.907Z,10100.00
2022-07-29T07:33:39.906Z,10060.00
2022-07-29T07:34:39.891Z,9772.00
2022-07-29T07:35:39.893Z,9056.00
2022-07-29T07:36:39.939Z,9812.00
2022-07-29T07:37:39.857Z,9928.00
2022-07-29T07:38:39.842Z,9588.00
2022-07-29T07:39:39.825Z,9476.00
2022-07-29T07:40:39.817Z,9280.00
2022-07-29T07:41:39.818Z,9840.00
2022-07-29T07:42:39.804Z,9940.00
2022-07-29T07:43:39.779Z,9772.00
2022-07-29T07:45:03.788Z,9648.00
2022-07-29T07:45:39.776Z,9348.00
2022-07-29T07:46:39.768Z,9060.00
2022-07-29T07:47:39.734Z,8508.00
2022-07-29T07:48:39.785Z,8940.00
2022-07-29T07:49:39.718Z,9324.00
2022-07-29T07:50:39.738Z,9424.00
2022-07-29T07:51:39.689Z,9168.00
2022-07-29T07:52:39.677Z,9092.00
2022-07-29T07:53:39.676Z,9316.00
2022-07-29T07:54:39.667Z,10308.00
2022-07-29T07:56:08.223Z,11156.00
2022-07-29T07:56:39.634Z,11276.00
2022-07-29T07:57:39.630Z,10728.00
2022-07-29T07:58:39.744Z,10480.00
2022-07-29T07:59:39.611Z,10280.00
2022-07-29T08:00:39.602Z,10404.00
2022-07-29T08:01:47.899Z,11384.00
2022-07-29T08:02:39.685Z,12580.00
2022-07-29T08:03:39.650Z,13644.00
2022-07-29T08:04:39.547Z,14852.00
2022-07-29T08:05:39.540Z,15920.00
2022-07-29T08:06:39.519Z,16536.00
2022-07-29T08:07:39.514Z,16612.00
2022-07-29T08:08:39.502Z,15656.00
2022-07-29T08:09:39.488Z,15916.00
2022-07-29T08:10:39.478Z,16092.00
2022-07-29T08:11:39.482Z,16156.00
2022-07-29T08:12:39.485Z,15636.00
2022-07-29T08:13:39.678Z,14888.00
2022-07-29T08:14:39.444Z,13540.00
2022-07-29T08:15:39.438Z,12052.00
2022-07-29T08:16:39.495Z,11804.00
2022-07-29T08:17:39.412Z,10884.00
2022-07-29T08:18:39.430Z,10200.00
2022-07-29T08:19:39.392Z,10144.00
2022-07-29T08:20:39.381Z,10476.00
2022-07-29T08:21:39.367Z,10740.00
2022-07-29T08:22:39.359Z,10504.00
2022-07-29T08:23:46.027Z,10360.00
2022-07-29T08:24:39.339Z,11192.00
2022-07-29T08:25:40.121Z,11660.00
2022-07-29T08:26:39.319Z,12040.00
2022-07-29T08:27:44.132Z,12024.00
2022-07-29T08:28:39.295Z,12640.00
2022-07-29T08:29:39.347Z,12832.00
2022-07-29T08:30:39.271Z,13864.00
2022-07-29T08:31:39.277Z,14140.00
2022-07-29T08:32:55.624Z,15784.00
2022-07-29T08:33:39.240Z,16392.00
2022-07-29T08:34:39.232Z,17296.00
2022-07-29T08:35:39.227Z,17092.00
2022-07-29T08:36:39.204Z,17004.00
2022-07-29T08:37:39.197Z,16904.00
2022-07-29T08:38:39.188Z,17204.00
2022-07-29T08:40:39.326Z,15116.00
2022-07-29T08:41:39.155Z,14288.00
2022-07-29T08:42:39.142Z,13792.00
2022-07-29T08:43:39.167Z,12848.00
2022-07-29T08:44:39.133Z,13184.00
2022-07-29T08:45:39.226Z,13952.00
2022-07-29T08:46:39.106Z,16944.00
2022-07-29T08:47:39.091Z,20448.00
2022-07-29T08:48:39.145Z,22336.00
2022-07-29T08:49:39.070Z,22656.00
2022-07-29T08:50:39.069Z,21472.00
2022-07-29T08:51:48.617Z,22144.00
2022-07-29T08:52:39.038Z,20864.00
2022-07-29T08:53:39.059Z,22880.00
2022-07-29T08:54:39.020Z,24832.00
2022-07-29T08:55:39.018Z,25088.00
2022-07-29T08:56:39.001Z,25792.00
2022-07-29T08:57:38.997Z,25472.00
2022-07-29T08:58:38.986Z,25760.00
2022-07-29T08:59:38.988Z,25888.00
2022-07-29T09:00:39.086Z,26176.00
2022-07-29T09:01:42.770Z,27872.00
2022-07-29T09:02:38.977Z,21856.00
2022-07-29T09:03:39.015Z,21280.00
2022-07-29T09:04:38.934Z,22176.00
2022-07-29T09:05:42.033Z,22112.00
2022-07-29T09:06:38.924Z,22432.00
2022-07-29T09:07:38.911Z,22688.00
2022-07-29T09:08:38.968Z,29088.00
2022-07-29T09:09:38.907Z,37664.00
2022-07-29T09:10:38.960Z,36096.00
2022-07-29T09:11:38.900Z,45792.00
2022-07-29T09:12:38.899Z,57856.00
2022-07-29T09:13:38.921Z,49248.00
2022-07-29T09:14:38.912Z,36576.00
2022-07-29T09:15:38.925Z,54912.00
2022-07-29T09:16:52.735Z,70016.00
2022-07-29T09:17:38.872Z,71552.00
2022-07-29T09:18:38.814Z,71456.00
2022-07-29T09:19:38.803Z,67200.00
2022-07-29T09:20:38.834Z,74112.00
2022-07-29T09:21:38.863Z,65056.00
2022-07-29T09:22:41.824Z,40864.00
2022-07-29T09:23:38.770Z,37760.00
2022-07-29T09:24:38.771Z,51232.00
2022-07-29T09:25:38.754Z,27520.00
2022-07-29T09:26:38.743Z,21088.00
2022-07-29T09:27:38.754Z,22688.00
2022-07-29T09:28:38.734Z,24160.00
2022-07-29T09:29:38.802Z,20096.00
2022-07-29T09:30:38.713Z,20288.00
2022-07-29T09:31:38.767Z,20064.00
2022-07-29T09:32:38.698Z,22272.00
2022-07-29T09:33:38.690Z,27936.00
2022-07-29T09:34:38.685Z,22400.00
2022-07-29T09:35:38.676Z,39200.00
2022-07-29T09:36:38.666Z,27840.00
2022-07-29T09:37:38.660Z,49376.00
2022-07-29T09:38:38.644Z,37088.00
2022-07-29T09:39:38.640Z,56928.00
2022-07-29T09:40:38.631Z,59392.00
2022-07-29T09:41:38.622Z,41632.00
2022-07-29T09:42:38.615Z,36128.00
2022-07-29T09:43:38.617Z,46272.00
2022-07-29T09:44:38.599Z,42368.00
2022-07-29T09:45:38.592Z,41088.00
2022-07-29T09:46:38.621Z,40192.00
2022-07-29T09:47:38.577Z,55744.00
2022-07-29T09:48:38.617Z,51008.00
2022-07-29T09:49:38.583Z,63904.00
2022-07-29T09:50:38.579Z,77152.00
2022-07-29T09:51:38.921Z,87424.00
2022-07-29T09:52:38.534Z,87712.00
2022-07-29T09:53:38.525Z,85632.00
2022-07-29T09:54:38.514Z,68416.00
2022-07-29T09:55:38.502Z,81600.00
2022-07-29T09:56:38.508Z,83680.00
2022-07-29T09:57:38.500Z,87648.00
2022-07-29T09:58:38.498Z,88928.00
2022-07-29T09:59:50.186Z,89152.00
2022-07-29T10:00:38.541Z,88736.00
2022-07-29T10:01:38.507Z,90144.00
2022-07-29T10:02:38.450Z,90080.00
2022-07-29T10:03:38.505Z,83552.00
2022-07-29T10:04:38.438Z,89984.00
2022-07-29T10:05:38.418Z,89280.00
2022-07-29T10:06:38.413Z,89216.00
2022-07-29T10:07:38.408Z,89536.00
2022-07-29T10:08:38.409Z,88768.00
2022-07-29T10:09:38.417Z,88160.00
2022-07-29T10:10:38.428Z,77632.00
2022-07-29T10:11:48.189Z,74816.00
2022-07-29T10:12:38.369Z,90336.00
2022-07-29T10:13:38.357Z,81056.00
2022-07-29T10:14:38.350Z,90144.00
2022-07-29T10:15:38.341Z,90624.00
2022-07-29T10:16:38.407Z,90848.00
2022-07-29T10:17:40.515Z,91680.00
2022-07-29T10:18:38.336Z,92608.00
2022-07-29T10:19:38.306Z,94496.00
2022-07-29T10:20:38.305Z,95584.00
2022-07-29T10:21:38.296Z,97568.00
2022-07-29T10:22:54.244Z,96928.00
2022-07-29T10:23:46.101Z,94304.00
2022-07-29T10:24:38.288Z,62720.00
2022-07-29T10:25:38.282Z,82336.00
2022-07-29T10:26:38.256Z,96032.00
2022-07-29T10:27:38.261Z,94944.00
2022-07-29T10:28:38.237Z,90016.00
2022-07-29T10:29:38.244Z,48576.00
2022-07-29T10:30:38.233Z,71264.00
2022-07-29T10:31:38.295Z,96288.00
2022-07-29T10:32:38.213Z,95360.00
2022-07-29T10:33:38.200Z,94336.00
2022-07-29T10:34:38.214Z,95936.00
2022-07-29T10:36:38.199Z,90560.00
2022-07-29T10:37:38.179Z,93888.00
2022-07-29T10:39:44.367Z,95744.00
2022-07-29T10:40:38.159Z,94528.00
2022-07-29T10:41:44.339Z,96320.00
2022-07-29T10:42:38.146Z,98784.00
2022-07-29T10:43:38.135Z,68160.00
2022-07-29T10:44:38.136Z,60320.00
2022-07-29T10:45:38.134Z,48128.00
2022-07-29T10:46:38.210Z,69376.00
2022-07-29T10:47:38.116Z,86400.00
2022-07-29T10:48:38.142Z,87840.00
2022-07-29T10:49:38.155Z,59392.00
2022-07-29T10:50:38.096Z,39552.00
2022-07-29T10:51:38.091Z,79008.00
2022-07-29T10:52:38.145Z,69568.00
2022-07-29T10:53:38.076Z,42784.00
2022-07-29T10:54:38.071Z,73888.00
2022-07-29T10:55:38.080Z,59488.00
2022-07-29T10:56:38.058Z,68640.00
2022-07-29T10:57:53.489Z,65440.00
2022-07-29T10:58:38.058Z,86144.00
2022-07-29T10:59:38.039Z,78016.00
2022-07-29T11:00:38.036Z,77024.00
2022-07-29T11:01:39.153Z,40288.00
2022-07-29T11:03:38.060Z,35584.00
2022-07-29T11:04:38.010Z,52960.00
2022-07-29T11:05:40.697Z,89504.00
2022-07-29T11:06:38.016Z,97120.00
2022-07-29T11:07:41.577Z,90112.00
2022-07-29T11:08:37.986Z,87232.00
2022-07-29T11:09:38.547Z,53440.00
2022-07-29T11:10:37.989Z,44000.00
2022-07-29T11:11:38.104Z,39424.00
2022-07-29T11:12:38.758Z,33376.00
2022-07-29T11:13:41.350Z,32480.00
2022-07-29T11:14:37.958Z,57600.00
2022-07-29T11:15:37.952Z,65760.00
2022-07-29T11:16:37.961Z,43744.00
2022-07-29T11:17:51.994Z,70176.00
2022-07-29T11:18:37.941Z,42240.00
2022-07-29T11:19:40.169Z,54400.00
2022-07-29T11:20:38.113Z,81504.00
2022-07-29T11:21:53.696Z,40224.00
2022-07-29T11:22:43.158Z,38528.00
2022-07-29T11:23:37.926Z,48768.00
2022-07-29T11:24:37.903Z,69824.00
2022-07-29T11:26:37.886Z,83776.00
2022-07-29T11:27:37.887Z,76224.00
2022-07-29T11:28:37.879Z,84832.00
2022-07-29T11:29:40.096Z,88096.00
2022-07-29T11:30:37.868Z,84032.00
2022-07-29T11:31:37.871Z,42144.00
2022-07-29T11:32:37.857Z,48480.00
2022-07-29T11:33:56.311Z,40544.00
2022-07-29T11:34:37.851Z,34336.00
2022-07-29T11:36:37.838Z,73184.00
2022-07-29T11:37:42.550Z,37248.00
2022-07-29T11:38:37.854Z,23136.00
2022-07-29T11:39:37.863Z,19936.00
2022-07-29T11:40:37.817Z,18240.00
2022-07-29T11:41:37.824Z,31904.00
2022-07-29T11:42:37.832Z,18688.00
2022-07-29T11:43:37.807Z,23136.00
2022-07-29T11:44:37.801Z,18272.00
2022-07-29T11:45:43.924Z,90912.00
2022-07-29T11:46:37.785Z,70592.00
2022-07-29T11:47:38.241Z,77696.00
2022-07-29T11:48:37.820Z,69472.00
2022-07-29T11:49:37.765Z,89888.00
2022-07-29T11:50:37.775Z,94080.00
2022-07-29T11:51:37.759Z,94720.00
2022-07-29T11:52:37.751Z,73984.00
2022-07-29T11:53:37.745Z,83072.00
2022-07-29T11:54:57.487Z,90784.00
2022-07-29T11:55:37.746Z,90400.00
2022-07-29T11:56:37.750Z,87872.00
2022-07-29T11:57:37.726Z,86880.00
2022-07-29T11:58:38.025Z,77184.00
2022-07-29T11:59:37.720Z,76704.00
2022-07-29T12:00:37.730Z,82176.00
2022-07-29T12:01:37.728Z,82080.00
2022-07-29T12:02:38.261Z,77216.00
2022-07-29T12:03:37.752Z,79008.00
2022-07-29T12:04:37.711Z,77920.00
2022-07-29T12:05:37.705Z,77056.00
2022-07-29T12:06:37.712Z,71360.00
2022-07-29T12:07:01.291Z,73248.00
2022-07-29T12:07:01.661Z,48768.00
2022-07-29T12:07:37.803Z,73024.00
2022-07-29T12:08:37.708Z,73568.00
2022-07-29T12:09:40.353Z,72864.00
2022-07-29T12:10:37.742Z,70624.00
2022-07-29T12:11:37.691Z,69664.00
2022-07-29T12:12:37.697Z,70656.00
2022-07-29T12:13:38.147Z,61536.00
2022-07-29T12:14:37.730Z,19424.00
2022-07-29T12:15:46.231Z,40192.00
2022-07-29T12:16:37.737Z,16808.00
2022-07-29T12:17:37.691Z,52448.00
2022-07-29T12:18:37.693Z,40960.00
2022-07-29T12:19:37.692Z,44448.00
2022-07-29T12:20:37.699Z,12100.00
2022-07-29T12:21:37.686Z,10228.00
2022-07-29T12:22:37.684Z,9944.00